createdAt,value
2022-08-17T00:02:25.161Z,3.78
2022-08-17T00:04:54.838Z,4.07
2022-08-17T00:07:23.875Z,3.85
2022-08-17T00:09:51.552Z,4.18
2022-08-17T00:12:42.744Z,4.00
2022-08-17T00:15:10.640Z,3.60
2022-08-17T00:17:38.720Z,3.40
2022-08-17T00:20:06.982Z,3.88
2022-08-17T00:22:36.809Z,3.80
2022-08-17T00:25:07.076Z,3.75
2022-08-17T00:27:34.718Z,3.80
2022-08-17T00:30:02.330Z,3.80
2022-08-17T00:33:15.898Z,4.10
2022-08-17T00:35:18.761Z,3.60
2022-08-17T00:37:47.714Z,3.78
2022-08-17T00:40:15.722Z,3.80
2022-08-17T00:42:43.654Z,3.47
2022-08-17T00:45:12.593Z,3.70
2022-08-17T00:47:40.213Z,3.65
2022-08-17T00:50:09.912Z,3.80
2022-08-17T00:52:40.137Z,3.72
2022-08-17T00:55:09.490Z,3.83
2022-08-17T00:57:39.040Z,3.88
2022-08-17T01:00:09.983Z,3.95
2022-08-17T01:02:41.666Z,3.90
2022-08-17T01:05:13.833Z,4.10
2022-08-17T01:07:41.686Z,3.80
2022-08-17T01:10:58.158Z,4.32
2022-08-17T01:12:59.439Z,4.38
2022-08-17T01:15:27.148Z,3.92
2022-08-17T01:17:54.767Z,3.67
2022-08-17T01:20:22.381Z,3.83
2022-08-17T01:22:51.583Z,4.20
2022-08-17T01:25:19.302Z,3.90
2022-08-17T01:27:47.018Z,3.83
2022-08-17T01:30:58.988Z,4.10
2022-08-17T01:33:02.469Z,3.75
2022-08-17T01:35:30.167Z,3.58
2022-08-17T01:37:59.119Z,4.00
2022-08-17T01:40:31.319Z,4.05
2022-08-17T01:43:01.069Z,4.10
2022-08-17T01:45:32.023Z,3.75
2022-08-17T01:47:59.661Z,4.68
2022-08-17T01:50:28.648Z,4.20
2022-08-17T01:52:58.096Z,4.20
2022-08-17T01:55:29.680Z,4.00
2022-08-17T01:57:57.351Z,3.90
2022-08-17T02:00:27.042Z,4.25
2022-08-17T02:03:14.510Z,4.13
2022-08-17T02:05:42.168Z,4.07
2022-08-17T02:08:09.744Z,3.92
2022-08-17T02:10:49.325Z,4.10
2022-08-17T02:13:17.974Z,4.32
2022-08-17T02:15:46.124Z,3.95
2022-08-17T02:18:13.816Z,4.35
2022-08-17T02:20:46.985Z,4.05
2022-08-17T02:23:14.641Z,4.32
2022-08-17T02:25:43.301Z,4.10
2022-08-17T02:28:12.326Z,4.30
2022-08-17T02:31:01.694Z,4.10
2022-08-17T02:33:42.030Z,4.53
2022-08-17T02:36:10.327Z,4.32
2022-08-17T02:38:38.064Z,4.28
2022-08-17T02:41:05.726Z,4.63
2022-08-17T02:43:34.866Z,4.40
2022-08-17T02:46:02.473Z,4.18
2022-08-17T02:48:31.950Z,4.40
2022-08-17T02:50:59.929Z,4.10
2022-08-17T02:53:27.631Z,4.45
2022-08-17T02:56:03.282Z,4.28
2022-08-17T02:58:35.156Z,4.35
2022-08-17T03:01:05.331Z,4.32
2022-08-17T03:03:32.963Z,4.53
2022-08-17T03:06:00.721Z,4.20
2022-08-17T03:08:28.442Z,4.28
2022-08-17T03:10:56.049Z,4.10
2022-08-17T03:13:24.096Z,4.15
2022-08-17T03:15:51.728Z,4.15
2022-08-17T03:18:25.539Z,4.00
2022-08-17T03:20:55.141Z,4.40
2022-08-17T03:23:24.001Z,4.10
2022-08-17T03:25:53.152Z,3.95
2022-08-17T03:28:21.143Z,4.28
2022-08-17T03:30:48.849Z,4.13
2022-08-17T03:33:16.886Z,4.35
2022-08-17T03:35:45.934Z,4.38
2022-08-17T03:38:15.238Z,4.00
2022-08-17T03:40:57.337Z,4.65
2022-08-17T03:43:27.661Z,4.32
2022-08-17T03:46:33.992Z,4.57
2022-08-17T03:49:18.228Z,4.18
2022-08-17T03:52:04.899Z,4.65
2022-08-17T03:54:50.512Z,4.20
2022-08-17T03:57:19.080Z,4.07
2022-08-17T03:59:46.748Z,4.10
2022-08-17T04:02:18.390Z,3.70
2022-08-17T04:04:46.004Z,4.10
2022-08-17T04:07:15.076Z,4.15
2022-08-17T04:09:43.533Z,4.22
2022-08-17T04:12:11.515Z,3.78
2022-08-17T04:14:52.127Z,4.32
2022-08-17T04:17:40.104Z,4.38
2022-08-17T04:20:08.805Z,4.40
2022-08-17T04:22:37.734Z,4.18
2022-08-17T04:25:08.290Z,4.40
2022-08-17T04:27:35.931Z,4.40
2022-08-17T04:30:03.657Z,4.20
2022-08-17T04:33:05.366Z,4.38
2022-08-17T04:35:20.371Z,4.30
2022-08-17T04:37:49.368Z,4.30
2022-08-17T04:40:34.863Z,4.25
2022-08-17T04:43:03.779Z,4.30
2022-08-17T04:45:32.427Z,4.28
2022-08-17T04:48:00.659Z,4.22
2022-08-17T04:50:28.315Z,4.60
2022-08-17T04:52:57.567Z,4.20
2022-08-17T04:55:25.347Z,4.40
2022-08-17T04:57:53.193Z,4.82
2022-08-17T05:00:21.066Z,4.47
2022-08-17T05:02:49.626Z,4.30
2022-08-17T05:05:19.594Z,4.28
2022-08-17T05:07:48.726Z,4.63
2022-08-17T05:10:17.993Z,4.68
2022-08-17T05:12:45.619Z,4.45
2022-08-17T05:15:15.869Z,4.47
2022-08-17T05:17:43.597Z,4.32
2022-08-17T05:20:11.871Z,4.20
2022-08-17T05:22:50.129Z,4.40
2022-08-17T05:25:21.267Z,4.03
2022-08-17T05:27:54.030Z,4.43
2022-08-17T05:30:21.657Z,4.20
2022-08-17T05:32:54.000Z,4.28
2022-08-17T05:35:21.864Z,4.00
2022-08-17T05:37:49.485Z,4.57
2022-08-17T05:40:17.102Z,4.63
2022-08-17T05:42:46.233Z,4.35
2022-08-17T05:45:15.629Z,4.30
2022-08-17T05:47:43.800Z,4.95
2022-08-17T05:50:32.269Z,4.53
2022-08-17T05:53:23.605Z,4.68
2022-08-17T05:56:29.674Z,4.80
2022-08-17T05:59:05.172Z,5.15
2022-08-17T06:01:36.582Z,4.63
2022-08-17T06:04:10.834Z,4.57
2022-08-17T06:06:41.151Z,4.63
2022-08-17T06:09:25.879Z,4.25
2022-08-17T06:12:00.134Z,5.05
2022-08-17T06:14:50.163Z,5.20
2022-08-17T06:17:19.628Z,4.70
2022-08-17T06:19:50.138Z,5.10
2022-08-17T06:22:19.574Z,5.30
2022-08-17T06:24:49.980Z,5.50
2022-08-17T06:27:21.018Z,5.00
2022-08-17T06:29:59.031Z,4.70
2022-08-17T06:32:26.661Z,5.25
2022-08-17T06:34:55.158Z,5.40
2022-08-17T06:37:48.766Z,5.30
2022-08-17T06:40:29.644Z,4.55
2022-08-17T06:43:12.584Z,4.50
2022-08-17T06:45:44.022Z,4.82
2022-08-17T06:48:14.005Z,4.70
2022-08-17T06:50:45.237Z,4.45
2022-08-17T06:53:15.007Z,4.57
2022-08-17T06:55:45.116Z,4.85
2022-08-17T06:58:16.211Z,4.75
2022-08-17T07:00:47.098Z,4.90
2022-08-17T07:03:18.873Z,4.70
2022-08-17T07:05:47.574Z,4.82
2022-08-17T07:08:18.486Z,4.97
2022-08-17T07:10:48.130Z,4.88
2022-08-17T07:13:26.447Z,4.72
2022-08-17T07:16:04.662Z,5.43
2022-08-17T07:18:33.130Z,4.50
2022-08-17T07:21:04.825Z,4.63
2022-08-17T07:23:38.618Z,5.10
2022-08-17T07:26:06.718Z,4.80
2022-08-17T07:28:34.466Z,4.65
2022-08-17T07:31:03.802Z,5.13
2022-08-17T07:33:32.973Z,4.65
2022-08-17T07:36:00.890Z,4.60
2022-08-17T07:38:29.230Z,4.90
2022-08-17T07:41:05.033Z,4.35
2022-08-17T07:43:33.264Z,4.30
2022-08-17T07:46:22.616Z,4.25
2022-08-17T07:48:51.130Z,4.63
2022-08-17T07:51:29.901Z,4.50
2022-08-17T07:54:13.165Z,4.38
2022-08-17T07:56:44.626Z,4.32
2022-08-17T07:59:14.917Z,4.60
2022-08-17T08:01:46.159Z,4.40
2022-08-17T08:04:49.994Z,4.40
2022-08-17T08:07:24.594Z,5.50
2022-08-17T08:10:01.536Z,4.45
2022-08-17T08:12:34.304Z,4.70
2022-08-17T08:15:05.082Z,4.65
2022-08-17T08:17:36.445Z,4.30
2022-08-17T08:20:19.695Z,4.32
2022-08-17T08:22:58.874Z,4.90
2022-08-17T08:25:32.724Z,4.45
2022-08-17T08:28:08.435Z,4.18
2022-08-17T08:30:37.171Z,4.60
2022-08-17T08:33:27.308Z,4.85
2022-08-17T08:35:56.603Z,5.10
2022-08-17T08:38:30.797Z,4.60
2022-08-17T08:41:05.304Z,4.50
2022-08-17T08:43:37.915Z,4.70
2022-08-17T08:46:08.993Z,4.57
2022-08-17T08:48:56.329Z,4.32
2022-08-17T08:51:31.750Z,4.47
2022-08-17T08:54:03.268Z,5.20
2022-08-17T08:56:35.325Z,4.57
2022-08-17T08:59:08.661Z,4.57
2022-08-17T09:01:38.758Z,4.53
2022-08-17T09:04:24.699Z,4.55
2022-08-17T09:06:59.345Z,4.65
2022-08-17T09:09:30.231Z,4.90
2022-08-17T09:12:04.117Z,4.30
2022-08-17T09:14:46.904Z,4.50
2022-08-17T09:17:16.474Z,4.63
2022-08-17T09:19:48.993Z,5.00
2022-08-17T09:22:24.749Z,4.70
2022-08-17T09:24:57.177Z,4.35
2022-08-17T09:27:28.142Z,4.90
2022-08-17T09:29:58.186Z,5.00
2022-08-17T09:32:29.540Z,4.85
2022-08-17T09:35:01.440Z,4.95
2022-08-17T09:37:30.611Z,4.65
2022-08-17T09:40:07.885Z,4.63
2022-08-17T09:42:39.321Z,5.20
2022-08-17T09:45:11.338Z,4.93
2022-08-17T09:47:45.394Z,4.95
2022-08-17T09:50:17.035Z,4.70
2022-08-17T09:52:44.652Z,4.80
2022-08-17T09:55:12.248Z,4.53
2022-08-17T09:57:49.263Z,5.10
2022-08-17T10:00:23.598Z,4.93
2022-08-17T10:03:28.208Z,4.78
2022-08-17T10:06:00.946Z,4.90
2022-08-17T10:08:35.045Z,4.88
2022-08-17T10:11:18.377Z,19.05
2022-08-17T10:13:53.531Z,7.53
2022-08-17T10:16:25.597Z,54.72
2022-08-17T10:19:02.734Z,42.92
2022-08-17T10:21:49.775Z,36.30
2022-08-17T10:25:21.807Z,29.33
2022-08-17T10:27:41.839Z,25.60
2022-08-17T10:30:10.850Z,25.10
2022-08-17T10:32:47.658Z,23.83
2022-08-17T10:35:25.743Z,21.95
2022-08-17T10:38:41.034Z,19.67
2022-08-17T10:41:21.293Z,17.40
2022-08-17T10:44:36.618Z,15.73
2022-08-17T10:46:54.351Z,14.27
2022-08-17T10:49:27.861Z,14.55
2022-08-17T10:51:56.124Z,13.55
2022-08-17T10:55:06.408Z,12.52
2022-08-17T10:57:38.063Z,12.20
2022-08-17T11:00:15.897Z,12.20
2022-08-17T11:02:49.893Z,12.00
2022-08-17T11:05:24.137Z,11.40
2022-08-17T11:08:23.193Z,11.55
2022-08-17T11:10:57.510Z,12.07
2022-08-17T11:13:31.157Z,9.90
2022-08-17T11:16:08.739Z,9.90
2022-08-17T11:18:45.119Z,10.18
2022-08-17T11:21:47.478Z,9.23
2022-08-17T11:24:20.314Z,8.73
2022-08-17T11:27:02.078Z,8.95
2022-08-17T11:29:34.754Z,8.82
2022-08-17T11:32:07.178Z,8.77
2022-08-17T11:34:49.759Z,7.97
2022-08-17T11:37:37.321Z,8.20
2022-08-17T11:40:48.129Z,8.05
2022-08-17T11:43:28.721Z,7.63
2022-08-17T11:46:11.940Z,8.23
2022-08-17T11:49:00.892Z,7.88
2022-08-17T11:52:01.773Z,7.80
2022-08-17T11:54:44.884Z,7.78
2022-08-17T11:58:00.915Z,7.88
2022-08-17T12:00:56.323Z,7.22
2022-08-17T12:03:42.417Z,7.72
2022-08-17T12:06:30.683Z,7.35
2022-08-17T12:09:07.776Z,7.15
2022-08-17T12:11:57.815Z,7.13
2022-08-17T12:14:51.692Z,7.07
2022-08-17T12:17:41.613Z,7.07
2022-08-17T12:20:15.154Z,7.05
2022-08-17T12:22:48.086Z,7.07
2022-08-17T12:25:17.854Z,7.40
2022-08-17T12:28:05.067Z,8.18
2022-08-17T12:30:35.398Z,7.75
2022-08-17T12:33:03.116Z,7.63
2022-08-17T12:35:35.096Z,8.43
2022-08-17T12:38:02.962Z,8.10
2022-08-17T12:40:32.275Z,7.70
2022-08-17T12:43:00.723Z,8.50
2022-08-17T12:45:30.299Z,8.02
2022-08-17T12:48:02.638Z,8.32
2022-08-17T12:50:32.128Z,8.02
2022-08-17T12:53:02.565Z,7.70
2022-08-17T12:55:32.757Z,7.50
2022-08-17T12:58:02.002Z,7.65
2022-08-17T13:00:37.928Z,8.55
2022-08-17T13:03:07.720Z,7.72
2022-08-17T13:05:39.338Z,7.50
2022-08-17T13:08:16.190Z,7.05
2022-08-17T13:10:54.998Z,7.57
2022-08-17T13:13:23.926Z,6.93
2022-08-17T13:15:55.186Z,7.72
2022-08-17T13:18:40.325Z,7.07
2022-08-17T13:21:08.721Z,7.35
2022-08-17T13:23:37.709Z,6.90
2022-08-17T13:26:06.686Z,7.15
2022-08-17T13:28:36.598Z,7.10
2022-08-17T13:31:25.009Z,7.30
2022-08-17T13:33:52.730Z,6.75
2022-08-17T13:36:28.200Z,7.05
2022-08-17T13:39:06.591Z,6.70
2022-08-17T13:41:36.261Z,6.72
2022-08-17T13:44:31.760Z,6.72
2022-08-17T13:46:59.565Z,6.95
2022-08-17T13:49:48.129Z,6.65
2022-08-17T13:52:32.548Z,6.90
2022-08-17T13:55:02.889Z,6.65
2022-08-17T13:57:30.472Z,6.60
2022-08-17T14:00:07.235Z,6.60
2022-08-17T14:02:35.118Z,6.28
2022-08-17T14:05:06.110Z,6.35
2022-08-17T14:07:35.234Z,6.60
2022-08-17T14:10:07.183Z,6.18
2022-08-17T14:12:35.223Z,6.70
2022-08-17T14:15:02.998Z,6.43
2022-08-17T14:17:36.338Z,6.20
2022-08-17T14:20:07.564Z,6.30
2022-08-17T14:22:36.505Z,6.22
2022-08-17T14:25:08.704Z,6.05
2022-08-17T14:27:51.843Z,6.63
2022-08-17T14:30:21.582Z,6.80
2022-08-17T14:32:51.766Z,6.63
2022-08-17T14:35:22.290Z,6.43
2022-08-17T14:37:50.138Z,6.85
2022-08-17T14:40:22.569Z,6.50
2022-08-17T14:42:50.769Z,6.97
2022-08-17T14:45:32.171Z,7.00
2022-08-17T14:48:02.645Z,6.90
2022-08-17T14:50:30.323Z,6.65
2022-08-17T14:53:06.154Z,6.70
2022-08-17T14:55:36.117Z,6.80
2022-08-17T14:58:04.900Z,6.25
2022-08-17T15:00:32.687Z,6.47
2022-08-17T15:03:00.822Z,6.38
2022-08-17T15:05:30.515Z,6.32
2022-08-17T15:07:58.269Z,6.30
2022-08-17T15:10:26.136Z,6.15
2022-08-17T15:12:55.225Z,6.32
2022-08-17T15:15:23.202Z,6.28
2022-08-17T15:17:51.139Z,6.88
2022-08-17T15:20:20.227Z,6.40
2022-08-17T15:22:49.582Z,5.93
2022-08-17T15:25:17.565Z,6.25
2022-08-17T15:27:45.342Z,5.97
2022-08-17T15:30:15.099Z,6.72
2022-08-17T15:32:46.865Z,6.10
2022-08-17T15:35:28.005Z,6.60
2022-08-17T15:37:57.715Z,5.68
2022-08-17T15:40:25.392Z,6.22
2022-08-17T15:42:53.108Z,6.05
2022-08-17T15:45:24.462Z,6.40
2022-08-17T15:47:52.384Z,5.82
2022-08-17T15:50:20.525Z,6.32
2022-08-17T15:52:48.274Z,6.18
2022-08-17T15:55:17.206Z,6.60
2022-08-17T15:57:47.418Z,6.43
2022-08-17T16:00:15.789Z,6.47
2022-08-17T16:03:44.412Z,6.45
2022-08-17T16:05:33.149Z,6.45
2022-08-17T16:08:00.841Z,6.68
2022-08-17T16:10:34.855Z,6.25
2022-08-17T16:13:03.774Z,6.00
2022-08-17T16:15:32.197Z,6.28
2022-08-17T16:18:01.317Z,6.63
2022-08-17T16:20:30.557Z,6.63
2022-08-17T16:22:58.248Z,6.47
2022-08-17T16:25:50.297Z,6.25
2022-08-17T16:28:15.222Z,6.22
2022-08-17T16:30:42.930Z,6.32
2022-08-17T16:33:12.370Z,6.55
2022-08-17T16:35:41.786Z,6.60
2022-08-17T16:38:09.599Z,6.75
2022-08-17T16:40:38.409Z,6.18
2022-08-17T16:43:12.032Z,6.13
2022-08-17T16:45:40.480Z,6.75
2022-08-17T16:48:08.693Z,6.80
2022-08-17T16:50:37.801Z,6.70
2022-08-17T16:53:07.447Z,6.72
2022-08-17T16:55:35.898Z,6.50
2022-08-17T16:58:04.646Z,6.30
2022-08-17T17:00:33.242Z,6.40
2022-08-17T17:03:19.693Z,6.10
2022-08-17T17:05:56.861Z,6.18
2022-08-17T17:08:27.026Z,6.07
2022-08-17T17:10:56.885Z,6.60
2022-08-17T17:13:27.520Z,6.35
2022-08-17T17:15:56.856Z,6.72
2022-08-17T17:18:33.292Z,7.20
2022-08-17T17:21:02.914Z,6.40
2022-08-17T17:23:35.844Z,6.13
2022-08-17T17:26:09.018Z,7.22
2022-08-17T17:28:40.605Z,6.53
2022-08-17T17:31:11.605Z,6.82
2022-08-17T17:33:44.022Z,7.20
2022-08-17T17:36:21.024Z,6.70
2022-08-17T17:38:49.942Z,6.57
2022-08-17T17:41:25.845Z,6.63
2022-08-17T17:44:01.827Z,6.30
2022-08-17T17:46:33.308Z,6.45
2022-08-17T17:49:01.308Z,6.47
2022-08-17T17:52:06.440Z,6.43
2022-08-17T17:54:29.416Z,6.32
2022-08-17T17:57:00.048Z,6.55
2022-08-17T17:59:30.407Z,6.30
2022-08-17T18:02:08.181Z,6.78
2022-08-17T18:04:41.354Z,6.53
2022-08-17T18:07:18.245Z,6.50
2022-08-17T18:10:01.595Z,6.38
2022-08-17T18:12:35.815Z,7.30
2022-08-17T18:15:29.629Z,6.78
2022-08-17T18:18:25.396Z,6.50
2022-08-17T18:20:56.281Z,5.97
2022-08-17T18:23:28.758Z,6.95
2022-08-17T18:25:57.030Z,6.53
2022-08-17T18:28:26.483Z,6.13
2022-08-17T18:31:09.624Z,6.30
2022-08-17T18:33:38.093Z,6.45
2022-08-17T18:36:06.752Z,6.07
2022-08-17T18:38:37.276Z,6.32
2022-08-17T18:41:19.374Z,6.80
2022-08-17T18:43:58.669Z,6.47
2022-08-17T18:46:29.752Z,6.03
2022-08-17T18:49:00.195Z,6.30
2022-08-17T18:51:41.510Z,5.85
2022-08-17T18:54:18.261Z,6.22
2022-08-17T18:56:50.314Z,5.65
2022-08-17T18:59:26.839Z,6.03
2022-08-17T19:02:26.372Z,5.95
2022-08-17T19:05:08.886Z,6.05
2022-08-17T19:07:38.750Z,6.30
2022-08-17T19:10:14.546Z,5.82
2022-08-17T19:12:45.199Z,5.50
2022-08-17T19:15:14.690Z,5.50
2022-08-17T19:17:46.766Z,5.57
2022-08-17T19:20:17.476Z,5.38
2022-08-17T19:22:51.332Z,5.70
2022-08-17T19:25:24.068Z,5.00
2022-08-17T19:27:58.440Z,5.60
2022-08-17T19:30:26.365Z,5.53
2022-08-17T19:32:54.006Z,5.10
2022-08-17T19:35:22.137Z,5.35
2022-08-17T19:37:56.404Z,4.95
2022-08-17T19:40:51.852Z,5.50
2022-08-17T19:43:21.376Z,4.97
2022-08-17T19:45:55.985Z,4.95
2022-08-17T19:48:28.132Z,4.70
2022-08-17T19:50:58.985Z,5.55
2022-08-17T19:53:47.820Z,4.95
2022-08-17T19:56:31.821Z,4.90
2022-08-17T19:59:02.079Z,5.00
2022-08-17T20:01:35.103Z,5.20
2022-08-17T20:04:07.451Z,5.28
2022-08-17T20:06:35.706Z,5.25
2022-08-17T20:09:10.556Z,4.90
2022-08-17T20:11:44.482Z,5.00
2022-08-17T20:14:14.302Z,5.20
2022-08-17T20:16:41.970Z,5.07
2022-08-17T20:19:12.664Z,5.47
2022-08-17T20:21:42.207Z,4.68
2022-08-17T20:24:17.346Z,4.90
2022-08-17T20:26:55.463Z,4.75
2022-08-17T20:29:37.126Z,4.72
2022-08-17T20:32:26.069Z,4.90
2022-08-17T20:35:25.035Z,4.53
2022-08-17T20:37:54.386Z,4.70
2022-08-17T20:40:33.562Z,4.70
2022-08-17T20:43:40.020Z,4.72
2022-08-17T20:46:11.570Z,4.88
2022-08-17T20:48:46.867Z,5.05
2022-08-17T20:51:20.206Z,4.53
2022-08-17T20:54:08.561Z,4.45
2022-08-17T20:56:51.454Z,4.93
2022-08-17T20:59:56.819Z,5.00
2022-08-17T21:02:27.061Z,4.88
2022-08-17T21:05:22.681Z,4.38
2022-08-17T21:07:54.536Z,4.70
2022-08-17T21:10:31.676Z,4.90
2022-08-17T21:13:01.240Z,4.72
2022-08-17T21:15:31.727Z,5.00
2022-08-17T21:18:06.563Z,5.07
2022-08-17T21:20:40.143Z,4.80
2022-08-17T21:23:32.713Z,4.55
2022-08-17T21:26:17.301Z,5.20
2022-08-17T21:29:00.431Z,4.65
2022-08-17T21:31:32.063Z,4.88
2022-08-17T21:34:33.849Z,4.70
2022-08-17T21:37:29.599Z,4.95
2022-08-17T21:39:58.996Z,4.80
2022-08-17T21:42:29.046Z,4.93
2022-08-17T21:44:58.085Z,4.85
2022-08-17T21:47:26.678Z,5.40
2022-08-17T21:49:56.500Z,5.18
2022-08-17T21:52:25.413Z,5.05
2022-08-17T21:54:54.090Z,4.82
2022-08-17T21:57:23.008Z,5.05
2022-08-17T21:59:55.229Z,5.30
2022-08-17T22:02:24.921Z,4.78
2022-08-17T22:05:02.145Z,4.80
2022-08-17T22:07:38.105Z,4.78
2022-08-17T22:10:06.453Z,5.20
2022-08-17T22:12:34.089Z,4.55
2022-08-17T22:15:04.154Z,4.60
2022-08-17T22:17:35.817Z,4.95
2022-08-17T22:20:07.406Z,5.20
2022-08-17T22:22:59.478Z,5.05
2022-08-17T22:25:30.995Z,5.05
2022-08-17T22:28:00.041Z,5.00
2022-08-17T22:30:35.374Z,5.05
2022-08-17T22:33:23.585Z,4.70
2022-08-17T22:35:53.301Z,5.15
2022-08-17T22:38:30.105Z,4.63
2022-08-17T22:41:34.341Z,4.78
2022-08-17T22:44:08.980Z,4.90
2022-08-17T22:46:39.593Z,4.80
2022-08-17T22:49:07.581Z,5.25
2022-08-17T22:51:36.528Z,5.00
2022-08-17T22:54:30.605Z,4.90
2022-08-17T22:57:18.943Z,4.93
2022-08-17T22:59:48.249Z,5.10
2022-08-17T23:02:23.233Z,5.10
2022-08-17T23:04:52.581Z,4.95
2022-08-17T23:07:21.699Z,5.07
2022-08-17T23:09:50.435Z,4.72
2022-08-17T23:12:26.203Z,5.10
2022-08-17T23:14:58.395Z,5.40
2022-08-17T23:17:27.493Z,4.75
2022-08-17T23:19:55.526Z,4.80
2022-08-17T23:22:24.497Z,5.05
2022-08-17T23:24:52.140Z,4.88
2022-08-17T23:27:19.985Z,4.97
2022-08-17T23:29:48.622Z,5.10
2022-08-17T23:32:16.935Z,5.25
2022-08-17T23:34:46.669Z,4.72
2022-08-17T23:37:15.208Z,4.25
2022-08-17T23:39:44.942Z,5.32
2022-08-17T23:42:14.091Z,5.10
2022-08-17T23:44:43.720Z,4.32
2022-08-17T23:47:11.645Z,4.55
2022-08-17T23:49:41.641Z,4.75
2022-08-17T23:52:12.554Z,4.45
2022-08-17T23:54:46.555Z,4.50
2022-08-17T23:57:15.789Z,4.32
2022-08-17T23:59:46.533Z,5.00
